createdAt,value
2022-08-21T00:00:02.554Z,44.80
2022-08-21T00:02:44.599Z,44.65
2022-08-21T00:05:11.033Z,44.68
2022-08-21T00:07:37.368Z,44.78
2022-08-21T00:10:04.780Z,44.85
2022-08-21T00:12:32.108Z,44.65
2022-08-21T00:14:58.846Z,44.67
2022-08-21T00:17:26.808Z,44.91
2022-08-21T00:19:53.171Z,44.75
2022-08-21T00:22:19.552Z,44.80
2022-08-21T00:24:45.909Z,44.64
2022-08-21T00:27:12.335Z,44.86
2022-08-21T00:29:38.730Z,45.02
2022-08-21T00:32:05.310Z,44.65
2022-08-21T00:34:31.668Z,44.81
2022-08-21T00:36:58.144Z,44.77
2022-08-21T00:39:24.899Z,44.80
2022-08-21T00:41:51.276Z,45.03
2022-08-21T00:44:17.651Z,44.94
2022-08-21T00:46:44.306Z,44.70
2022-08-21T00:49:12.455Z,44.74
2022-08-21T00:51:42.732Z,44.41
2022-08-21T00:54:17.965Z,44.89
2022-08-21T00:56:45.995Z,44.67
2022-08-21T00:59:12.401Z,45.04
2022-08-21T01:01:38.817Z,44.96
2022-08-21T01:04:05.335Z,44.66
2022-08-21T01:06:31.733Z,45.02
2022-08-21T01:08:58.099Z,44.65
2022-08-21T01:11:24.580Z,44.65
2022-08-21T01:13:52.747Z,44.96
2022-08-21T01:16:21.358Z,44.88
2022-08-21T01:18:48.636Z,44.53
2022-08-21T01:21:16.930Z,44.82
2022-08-21T01:23:44.883Z,44.59
2022-08-21T01:26:12.486Z,44.50
2022-08-21T01:28:41.571Z,44.62
2022-08-21T01:31:09.524Z,44.81
2022-08-21T01:33:36.302Z,44.80
2022-08-21T01:36:02.831Z,44.64
2022-08-21T01:38:29.187Z,44.87
2022-08-21T01:40:57.727Z,45.04
2022-08-21T01:43:25.697Z,44.96
2022-08-21T01:46:05.849Z,44.93
2022-08-21T01:48:32.518Z,44.96
2022-08-21T01:50:59.115Z,44.71
2022-08-21T01:53:28.687Z,44.95
2022-08-21T01:55:59.856Z,44.70
2022-08-21T01:58:26.310Z,44.58
2022-08-21T02:00:52.801Z,45.05
2022-08-21T02:03:34.951Z,44.73
2022-08-21T02:06:01.998Z,44.87
2022-08-21T02:08:29.061Z,44.81
2022-08-21T02:10:55.567Z,44.59
2022-08-21T02:13:21.991Z,44.59
2022-08-21T02:15:49.377Z,44.58
2022-08-21T02:18:15.722Z,44.63
2022-08-21T02:20:48.754Z,45.05
2022-08-21T02:23:26.736Z,44.84
2022-08-21T02:26:00.816Z,44.89
2022-08-21T02:28:27.799Z,44.78
2022-08-21T02:30:55.207Z,45.20
2022-08-21T02:33:21.882Z,44.75
2022-08-21T02:35:48.462Z,44.68
2022-08-21T02:38:20.010Z,44.73
2022-08-21T02:40:47.981Z,44.89
2022-08-21T02:43:16.084Z,44.90
2022-08-21T02:45:42.823Z,44.85
2022-08-21T02:48:10.610Z,44.62
2022-08-21T02:50:39.401Z,45.12
2022-08-21T02:53:06.919Z,45.00
2022-08-21T02:55:34.188Z,44.93
2022-08-21T02:58:00.625Z,44.74
2022-08-21T03:00:28.119Z,45.02
2022-08-21T03:02:56.545Z,44.71
2022-08-21T03:05:23.838Z,44.91
2022-08-21T03:07:50.340Z,44.52
2022-08-21T03:10:17.419Z,44.83
2022-08-21T03:12:44.014Z,44.91
2022-08-21T03:15:11.959Z,44.63
2022-08-21T03:17:38.594Z,44.75
2022-08-21T03:20:06.878Z,44.87
2022-08-21T03:22:33.307Z,44.96
2022-08-21T03:25:00.307Z,44.50
2022-08-21T03:27:27.675Z,44.63
2022-08-21T03:29:56.542Z,44.61
2022-08-21T03:32:22.868Z,44.92
2022-08-21T03:34:49.252Z,44.93
2022-08-21T03:37:16.446Z,44.91
2022-08-21T03:39:42.856Z,44.75
2022-08-21T03:42:09.452Z,44.93
2022-08-21T03:44:36.264Z,44.94
2022-08-21T03:47:03.397Z,44.59
2022-08-21T03:49:30.075Z,44.53
2022-08-21T03:51:59.619Z,44.60
2022-08-21T03:54:26.543Z,44.90
2022-08-21T03:56:55.436Z,44.57
2022-08-21T03:59:21.860Z,44.91
2022-08-21T04:01:59.647Z,44.62
2022-08-21T04:04:26.668Z,44.94
2022-08-21T04:06:53.011Z,44.85
2022-08-21T04:09:19.644Z,44.89
2022-08-21T04:11:47.824Z,44.72
2022-08-21T04:14:15.148Z,44.98
2022-08-21T04:16:42.320Z,44.65
2022-08-21T04:19:08.972Z,44.64
2022-08-21T04:21:37.436Z,45.02
2022-08-21T04:24:04.059Z,44.65
2022-08-21T04:26:31.796Z,44.99
2022-08-21T04:28:58.490Z,44.95
2022-08-21T04:31:25.161Z,44.52
2022-08-21T04:33:51.876Z,44.97
2022-08-21T04:36:18.612Z,44.83
2022-08-21T04:38:49.559Z,44.91
2022-08-21T04:41:15.891Z,44.57
2022-08-21T04:43:42.250Z,44.68
2022-08-21T04:46:08.595Z,44.56
2022-08-21T04:48:40.041Z,45.10
2022-08-21T04:51:08.980Z,44.63
2022-08-21T04:53:35.292Z,45.01
2022-08-21T04:56:10.697Z,44.74
2022-08-21T04:58:38.399Z,44.90
2022-08-21T05:01:05.819Z,44.65
2022-08-21T05:03:34.359Z,44.89
2022-08-21T05:06:00.988Z,44.58
2022-08-21T05:08:28.023Z,44.57
2022-08-21T05:10:59.662Z,44.57
2022-08-21T05:13:27.068Z,44.79
2022-08-21T05:15:53.459Z,44.80
2022-08-21T05:18:19.878Z,44.47
2022-08-21T05:20:46.623Z,44.59
2022-08-21T05:23:14.176Z,44.68
2022-08-21T05:25:41.364Z,44.94
2022-08-21T05:28:08.241Z,44.96
2022-08-21T05:30:35.106Z,44.71
2022-08-21T05:33:02.347Z,44.78
2022-08-21T05:35:29.308Z,44.72
2022-08-21T05:37:56.476Z,44.97
2022-08-21T05:40:23.608Z,44.81
2022-08-21T05:42:55.105Z,44.45
2022-08-21T05:45:41.781Z,44.81
2022-08-21T05:48:13.430Z,44.92
2022-08-21T05:50:39.994Z,44.46
2022-08-21T05:53:07.638Z,44.74
2022-08-21T05:55:34.438Z,44.62
2022-08-21T05:58:00.836Z,44.29
2022-08-21T06:00:27.207Z,44.50
2022-08-21T06:02:53.589Z,44.68
2022-08-21T06:05:25.217Z,44.83
2022-08-21T06:08:04.035Z,44.67
2022-08-21T06:10:30.432Z,44.70
2022-08-21T06:12:56.904Z,44.74
2022-08-21T06:15:23.285Z,44.87
2022-08-21T06:17:49.722Z,44.55
2022-08-21T06:20:16.201Z,44.72
2022-08-21T06:22:42.550Z,44.50
2022-08-21T06:25:10.203Z,44.71
2022-08-21T06:27:36.598Z,44.74
2022-08-21T06:30:03.731Z,44.77
2022-08-21T06:32:30.118Z,44.72
2022-08-21T06:34:56.499Z,44.70
2022-08-21T06:37:23.190Z,44.31
2022-08-21T06:39:49.699Z,44.51
2022-08-21T06:42:16.625Z,44.57
2022-08-21T06:44:44.400Z,44.41
2022-08-21T06:47:11.312Z,44.31
2022-08-21T06:49:37.653Z,44.35
2022-08-21T06:52:04.522Z,44.45
2022-08-21T06:54:31.601Z,44.63
2022-08-21T06:56:57.955Z,44.49
2022-08-21T06:59:24.297Z,44.38
2022-08-21T07:01:50.710Z,44.47
2022-08-21T07:04:17.161Z,44.49
2022-08-21T07:06:43.530Z,44.47
2022-08-21T07:09:11.305Z,44.47
2022-08-21T07:11:42.366Z,44.43
2022-08-21T07:14:20.374Z,44.82
2022-08-21T07:16:47.316Z,44.56
2022-08-21T07:19:13.685Z,44.77
2022-08-21T07:21:40.065Z,44.35
2022-08-21T07:24:06.453Z,44.66
2022-08-21T07:26:32.830Z,44.60
2022-08-21T07:28:59.211Z,44.35
2022-08-21T07:31:26.035Z,44.43
2022-08-21T07:33:52.599Z,44.41
2022-08-21T07:36:19.407Z,44.19
2022-08-21T07:38:46.235Z,44.63
2022-08-21T07:41:16.030Z,44.78
2022-08-21T07:43:45.789Z,44.63
2022-08-21T07:46:13.485Z,44.83
2022-08-21T07:48:39.846Z,44.89
2022-08-21T07:51:10.649Z,44.72
2022-08-21T07:53:37.670Z,45.01
2022-08-21T07:56:05.530Z,44.71
2022-08-21T07:58:32.543Z,44.96
2022-08-21T08:01:00.189Z,45.02
2022-08-21T08:03:28.790Z,45.07
2022-08-21T08:05:55.528Z,44.92
2022-08-21T08:08:21.886Z,44.67
2022-08-21T08:10:50.409Z,45.13
2022-08-21T08:13:17.076Z,44.81
2022-08-21T08:15:43.431Z,44.95
2022-08-21T08:18:09.816Z,45.12
2022-08-21T08:20:36.183Z,45.11
2022-08-21T08:23:03.006Z,45.13
2022-08-21T08:25:32.745Z,45.52
2022-08-21T08:28:06.776Z,45.18
2022-08-21T08:30:43.475Z,45.50
2022-08-21T08:33:10.501Z,45.58
2022-08-21T08:35:38.916Z,45.49
2022-08-21T08:38:05.970Z,45.47
2022-08-21T08:40:45.746Z,45.22
2022-08-21T08:43:15.151Z,45.28
2022-08-21T08:45:44.082Z,45.68
2022-08-21T08:48:14.001Z,45.60
2022-08-21T08:50:43.362Z,45.41
2022-08-21T08:53:18.388Z,45.50
2022-08-21T08:55:45.767Z,45.73
2022-08-21T08:58:17.923Z,45.73
2022-08-21T09:00:48.261Z,45.73
2022-08-21T09:03:14.771Z,45.26
2022-08-21T09:05:45.190Z,45.49
2022-08-21T09:08:30.499Z,45.55
2022-08-21T09:10:56.811Z,45.48
2022-08-21T09:13:42.183Z,45.27
2022-08-21T09:16:11.737Z,45.32
2022-08-21T09:18:47.167Z,45.44
2022-08-21T09:21:31.976Z,45.49
2022-08-21T09:23:58.279Z,45.77
2022-08-21T09:26:27.358Z,45.19
2022-08-21T09:28:55.390Z,45.30
2022-08-21T09:31:33.520Z,45.33
2022-08-21T09:34:00.988Z,45.28
2022-08-21T09:36:32.606Z,45.25
2022-08-21T09:38:58.975Z,45.14
2022-08-21T09:41:32.592Z,44.72
2022-08-21T09:43:59.230Z,44.77
2022-08-21T09:46:27.015Z,45.02
2022-08-21T09:48:54.786Z,44.53
2022-08-21T09:51:23.034Z,44.87
2022-08-21T09:53:51.904Z,44.85
2022-08-21T09:56:39.618Z,44.88
2022-08-21T09:59:20.364Z,44.95
2022-08-21T10:01:49.626Z,44.56
2022-08-21T10:04:20.007Z,44.82
2022-08-21T10:06:46.407Z,44.71
2022-08-21T10:09:21.369Z,44.52
2022-08-21T10:12:11.343Z,44.86
2022-08-21T10:14:40.688Z,44.71
2022-08-21T10:17:33.272Z,44.54
2022-08-21T10:20:10.376Z,44.69
2022-08-21T10:22:46.667Z,44.61
2022-08-21T10:25:20.607Z,44.50
2022-08-21T10:28:13.828Z,44.54
2022-08-21T10:30:43.247Z,44.49
2022-08-21T10:33:18.703Z,44.37
2022-08-21T10:36:09.818Z,44.45
2022-08-21T10:39:12.128Z,44.40
2022-08-21T10:42:04.622Z,44.38
2022-08-21T10:44:36.143Z,44.36
2022-08-21T10:47:29.312Z,44.12
2022-08-21T10:50:09.435Z,44.42
2022-08-21T10:52:57.631Z,44.04
2022-08-21T10:55:27.515Z,44.14
2022-08-21T10:58:10.388Z,44.13
2022-08-21T11:00:42.639Z,43.88
2022-08-21T11:03:13.180Z,43.67
2022-08-21T11:05:42.555Z,43.88
2022-08-21T11:08:14.788Z,43.66
2022-08-21T11:10:57.825Z,43.89
2022-08-21T11:13:49.310Z,43.97
2022-08-21T11:16:34.505Z,43.45
2022-08-21T11:19:14.810Z,43.42
2022-08-21T11:21:47.215Z,43.77
2022-08-21T11:24:22.819Z,43.71
2022-08-21T11:26:54.720Z,43.76
2022-08-21T11:29:32.492Z,43.73
2022-08-21T11:32:39.552Z,43.50
2022-08-21T11:35:12.093Z,43.20
2022-08-21T11:37:38.432Z,43.26
2022-08-21T11:40:11.027Z,43.32
2022-08-21T11:42:51.370Z,43.43
2022-08-21T11:45:34.463Z,43.27
2022-08-21T11:48:19.372Z,43.24
2022-08-21T11:50:46.355Z,43.32
2022-08-21T11:53:18.310Z,43.47
2022-08-21T11:55:55.102Z,43.22
2022-08-21T11:58:25.715Z,43.20
2022-08-21T12:01:19.880Z,43.24
2022-08-21T12:04:05.142Z,42.89
2022-08-21T12:06:41.122Z,42.80
2022-08-21T12:09:10.192Z,42.58
2022-08-21T12:11:50.260Z,42.65
2022-08-21T12:14:19.479Z,42.32
2022-08-21T12:16:47.507Z,42.50
2022-08-21T12:19:30.566Z,42.33
2022-08-21T12:22:10.062Z,42.61
2022-08-21T12:24:39.191Z,42.31
2022-08-21T12:27:17.846Z,42.00
2022-08-21T12:29:49.196Z,42.37
2022-08-21T12:32:15.574Z,42.31
2022-08-21T12:34:46.881Z,42.11
2022-08-21T12:37:19.499Z,41.78
2022-08-21T12:39:47.831Z,41.50
2022-08-21T12:42:23.327Z,41.86
2022-08-21T12:44:53.140Z,42.16
2022-08-21T12:47:30.618Z,41.87
2022-08-21T12:50:03.508Z,41.92
2022-08-21T12:52:39.587Z,41.91
2022-08-21T12:55:06.774Z,41.63
2022-08-21T12:57:33.155Z,41.52
2022-08-21T13:00:06.043Z,41.23
2022-08-21T13:02:34.376Z,41.34
2022-08-21T14:39:08.636Z,40.43
2022-08-21T14:41:52.782Z,40.24
2022-08-21T15:54:11.975Z,38.59
2022-08-21T15:57:06.231Z,38.81
2022-08-21T17:24:34.438Z,41.47
2022-08-21T18:12:22.423Z,42.10
2022-08-21T18:14:49.290Z,42.24
2022-08-21T18:17:18.285Z,42.61
2022-08-21T18:19:48.863Z,42.44
2022-08-21T18:22:15.731Z,42.20
2022-08-21T18:24:43.541Z,42.63
2022-08-21T18:27:10.362Z,42.57
2022-08-21T18:29:47.219Z,42.78
2022-08-21T18:32:29.602Z,42.86
2022-08-21T18:34:59.257Z,42.74
2022-08-21T18:37:25.639Z,42.77
2022-08-21T18:39:52.072Z,42.75
2022-08-21T18:42:18.644Z,42.64
2022-08-21T18:44:46.413Z,42.63
2022-08-21T18:47:20.693Z,42.94
2022-08-21T18:49:47.047Z,43.03
2022-08-21T18:52:17.829Z,42.79
2022-08-21T18:54:46.889Z,43.03
2022-08-21T18:57:16.284Z,43.17
2022-08-21T18:59:43.631Z,43.12
2022-08-21T19:02:10.220Z,43.10
2022-08-21T19:04:44.242Z,43.33
2022-08-21T19:07:13.510Z,43.57
2022-08-21T19:09:40.451Z,43.33
2022-08-21T19:12:09.428Z,43.57
2022-08-21T19:14:38.050Z,43.17
2022-08-21T19:17:04.457Z,43.45
2022-08-21T19:19:31.630Z,43.23
2022-08-21T19:21:58.639Z,43.42
2022-08-21T19:24:26.352Z,43.34
2022-08-21T19:26:55.978Z,43.52
2022-08-21T19:29:22.548Z,43.52
2022-08-21T19:32:03.964Z,43.67
2022-08-21T19:34:30.967Z,43.27
2022-08-21T19:36:57.536Z,43.66
2022-08-21T19:39:24.055Z,43.96
2022-08-21T19:41:53.780Z,43.78
2022-08-21T19:44:29.482Z,43.63
2022-08-21T19:46:57.765Z,44.09
2022-08-21T19:49:26.790Z,43.67
2022-08-21T19:51:53.257Z,43.74
2022-08-21T19:54:27.852Z,43.80
2022-08-21T19:56:57.063Z,44.18
2022-08-21T19:59:25.493Z,43.94
2022-08-21T20:01:51.878Z,43.93
2022-08-21T20:04:19.389Z,43.64
2022-08-21T20:06:46.363Z,43.93
2022-08-21T20:09:13.963Z,43.64
2022-08-21T20:11:42.348Z,43.78
2022-08-21T20:14:10.584Z,44.02
2022-08-21T20:16:37.795Z,44.03
2022-08-21T20:19:07.883Z,44.07
2022-08-21T20:21:44.359Z,43.83
2022-08-21T20:24:11.604Z,43.95
2022-08-21T20:26:41.810Z,43.78
2022-08-21T20:29:15.651Z,43.95
2022-08-21T20:31:42.840Z,43.85
2022-08-21T20:34:09.570Z,43.85
2022-08-21T20:36:36.195Z,44.12
2022-08-21T20:39:02.984Z,43.75
2022-08-21T20:41:30.467Z,44.06
2022-08-21T20:43:57.732Z,43.97
2022-08-21T20:46:26.111Z,44.19
2022-08-21T20:48:53.904Z,44.21
2022-08-21T20:51:23.281Z,44.26
2022-08-21T20:53:54.756Z,44.26
2022-08-21T20:56:38.239Z,44.10
2022-08-21T20:59:28.091Z,44.05
2022-08-21T21:01:58.012Z,43.97
2022-08-21T21:04:37.164Z,44.32
2022-08-21T21:07:06.986Z,44.09
2022-08-21T21:09:42.471Z,43.96
2022-08-21T21:12:13.680Z,44.33
2022-08-21T21:14:48.344Z,44.33
2022-08-21T21:17:28.515Z,44.54
2022-08-21T21:20:01.682Z,44.35
2022-08-21T21:22:31.987Z,44.68
2022-08-21T21:25:08.072Z,44.67
2022-08-21T21:27:37.265Z,44.35
2022-08-21T21:30:11.292Z,44.63
2022-08-21T21:32:38.946Z,44.67
2022-08-21T21:35:05.847Z,44.70
2022-08-21T21:37:37.941Z,44.36
2022-08-21T21:40:05.588Z,44.37
2022-08-21T21:42:46.980Z,44.54
2022-08-21T21:45:15.695Z,44.82
2022-08-21T21:47:56.753Z,44.53
2022-08-21T21:50:42.651Z,44.59
2022-08-21T21:53:12.567Z,44.72
2022-08-21T21:55:57.721Z,44.38
2022-08-21T21:58:39.381Z,44.51
2022-08-21T22:01:26.418Z,44.72
2022-08-21T22:04:11.444Z,44.84
2022-08-21T22:06:55.415Z,44.85
2022-08-21T22:09:34.484Z,44.77
2022-08-21T22:12:00.895Z,44.63
2022-08-21T22:14:39.938Z,44.98
2022-08-21T22:17:09.118Z,45.03
2022-08-21T22:19:38.682Z,44.89
2022-08-21T22:22:13.319Z,44.58
2022-08-21T22:24:44.590Z,44.93
2022-08-21T22:27:13.445Z,44.85
2022-08-21T22:29:54.779Z,44.69
2022-08-21T22:32:50.369Z,44.59
2022-08-21T22:35:16.816Z,44.46
2022-08-21T22:37:51.455Z,44.60
2022-08-21T22:40:23.665Z,44.92
2022-08-21T22:43:07.253Z,44.63
2022-08-21T22:46:04.171Z,44.77
2022-08-21T22:48:34.072Z,45.01
2022-08-21T22:51:11.566Z,44.92
2022-08-21T22:53:43.137Z,44.77
2022-08-21T22:56:10.607Z,44.64
2022-08-21T22:58:40.999Z,44.93
2022-08-21T23:01:16.734Z,44.96
2022-08-21T23:03:45.076Z,44.96
2022-08-21T23:06:29.484Z,44.62
2022-08-21T23:08:55.936Z,45.07
2022-08-21T23:11:26.264Z,45.04
2022-08-21T23:13:55.267Z,44.65
2022-08-21T23:16:33.905Z,44.86
2022-08-21T23:19:00.392Z,44.76
2022-08-21T23:21:40.759Z,44.76
2022-08-21T23:24:19.435Z,45.12
2022-08-21T23:26:59.946Z,44.99
2022-08-21T23:29:33.736Z,44.96
2022-08-21T23:32:10.863Z,44.86
2022-08-21T23:34:57.602Z,45.10
2022-08-21T23:40:50.822Z,44.87
2022-08-21T23:43:37.305Z,45.21
2022-08-21T23:46:32.445Z,45.19
2022-08-21T23:49:05.311Z,45.17
2022-08-21T23:51:40.972Z,44.92
2022-08-21T23:54:26.963Z,44.91
2022-08-21T23:57:31.226Z,45.29
2022-08-21T23:59:58.335Z,45.01
